createdAt,value
2019-03-25T00:00:22.231Z,-1.28
2019-03-25T00:01:22.306Z,-1.30
2019-03-25T00:02:22.212Z,-1.33
2019-03-25T00:03:22.204Z,-1.17
2019-03-25T00:04:22.203Z,-1.09
2019-03-25T00:05:22.217Z,-0.99
2019-03-25T00:06:22.169Z,-0.97
2019-03-25T00:07:22.162Z,-0.99
2019-03-25T00:08:22.155Z,-0.98
2019-03-25T00:09:22.139Z,-0.98
2019-03-25T00:10:22.127Z,-1.04
2019-03-25T00:11:22.163Z,-0.98
2019-03-25T00:12:22.108Z,-0.94
2019-03-25T00:13:22.100Z,-0.83
2019-03-25T00:14:22.092Z,-0.83
2019-03-25T00:15:22.092Z,-0.85
2019-03-25T00:16:22.075Z,-0.83
2019-03-25T00:17:22.098Z,-0.91
2019-03-25T00:18:22.048Z,-0.79
2019-03-25T00:19:22.043Z,-0.76
2019-03-25T00:20:22.032Z,-0.82
2019-03-25T00:21:22.016Z,-0.85
2019-03-25T00:22:22.006Z,-0.70
2019-03-25T00:23:22.148Z,-0.73
2019-03-25T00:24:21.983Z,-0.67
2019-03-25T00:25:21.972Z,-0.60
2019-03-25T00:26:21.973Z,-0.58
2019-03-25T00:27:21.954Z,-0.57
2019-03-25T00:28:21.939Z,-0.58
2019-03-25T00:29:32.201Z,-0.61
2019-03-25T00:30:21.922Z,-0.64
2019-03-25T00:31:21.911Z,-0.62
2019-03-25T00:32:21.898Z,-0.57
2019-03-25T00:33:21.888Z,-0.65
2019-03-25T00:34:21.881Z,-0.67
2019-03-25T00:35:21.883Z,-0.64
2019-03-25T00:36:21.859Z,-0.67
2019-03-25T00:37:21.846Z,-0.69
2019-03-25T00:38:21.840Z,-0.72
2019-03-25T00:39:21.821Z,-0.79
2019-03-25T00:40:21.817Z,-0.83
2019-03-25T00:41:21.838Z,-0.85
2019-03-25T00:42:21.869Z,-0.85
2019-03-25T00:43:21.789Z,-0.79
2019-03-25T00:44:21.772Z,-0.92
2019-03-25T00:45:21.766Z,-0.83
2019-03-25T00:46:21.756Z,-0.92
2019-03-25T00:47:21.793Z,-0.92
2019-03-25T00:48:21.727Z,-0.98
2019-03-25T00:49:21.721Z,-0.98
2019-03-25T00:50:21.712Z,-0.92
2019-03-25T00:51:21.704Z,-0.86
2019-03-25T00:52:21.692Z,-0.85
2019-03-25T00:53:21.689Z,-0.76
2019-03-25T00:54:21.668Z,-0.79
2019-03-25T00:55:21.662Z,-0.78
2019-03-25T00:56:21.652Z,-0.83
2019-03-25T00:57:21.638Z,-0.94
2019-03-25T00:58:21.661Z,-0.83
2019-03-25T00:59:21.616Z,-0.76
2019-03-25T01:00:31.484Z,-0.76
2019-03-25T01:01:21.595Z,-0.65
2019-03-25T01:02:21.586Z,-0.64
2019-03-25T01:03:22.631Z,-0.67
2019-03-25T01:04:21.586Z,-0.70
2019-03-25T01:05:21.549Z,-0.65
2019-03-25T01:06:21.555Z,-0.73
2019-03-25T01:07:21.531Z,-0.85
2019-03-25T01:08:21.520Z,-0.80
2019-03-25T01:09:21.513Z,-0.83
2019-03-25T01:10:21.539Z,-0.85
2019-03-25T01:11:21.488Z,-0.85
2019-03-25T01:12:21.485Z,-0.80
2019-03-25T01:13:21.470Z,-0.78
2019-03-25T01:14:21.457Z,-0.85
2019-03-25T01:15:21.450Z,-0.82
2019-03-25T01:16:21.478Z,-0.76
2019-03-25T01:17:21.437Z,-0.69
2019-03-25T01:18:21.414Z,-0.80
2019-03-25T01:19:21.407Z,-0.78
2019-03-25T01:20:21.473Z,-0.82
2019-03-25T01:21:21.389Z,-0.62
2019-03-25T01:22:21.423Z,-0.73
2019-03-25T01:23:21.366Z,-0.75
2019-03-25T01:24:21.357Z,-0.67
2019-03-25T01:25:21.342Z,-0.73
2019-03-25T01:26:21.333Z,-0.72
2019-03-25T01:27:21.328Z,-0.69
2019-03-25T01:28:21.459Z,-0.76
2019-03-25T01:29:21.304Z,-0.76
2019-03-25T01:30:21.289Z,-0.80
2019-03-25T01:31:33.105Z,-0.69
2019-03-25T01:32:21.271Z,-0.75
2019-03-25T01:33:21.257Z,-0.78
2019-03-25T01:34:21.257Z,-0.76
2019-03-25T01:35:21.238Z,-0.80
2019-03-25T01:36:21.229Z,-0.75
2019-03-25T01:37:21.218Z,-0.79
2019-03-25T01:38:21.211Z,-0.85
2019-03-25T01:39:21.210Z,-0.67
2019-03-25T01:40:21.187Z,-0.69
2019-03-25T01:41:21.176Z,-0.67
2019-03-25T01:42:21.171Z,-0.67
2019-03-25T01:43:21.162Z,-0.80
2019-03-25T01:44:21.186Z,-0.82
2019-03-25T01:45:21.138Z,-0.76
2019-03-25T01:46:21.120Z,-0.72
2019-03-25T01:47:21.116Z,-0.69
2019-03-25T01:48:21.104Z,-0.73
2019-03-25T01:49:21.092Z,-0.79
2019-03-25T01:50:21.115Z,-0.75
2019-03-25T01:51:21.071Z,-0.89
2019-03-25T01:52:21.064Z,-0.80
2019-03-25T01:53:21.057Z,-0.79
2019-03-25T01:54:21.042Z,-0.89
2019-03-25T01:55:21.024Z,-0.91
2019-03-25T01:56:21.056Z,-1.05
2019-03-25T01:57:21.008Z,-0.97
2019-03-25T01:58:20.994Z,-0.86
2019-03-25T01:59:21.044Z,-0.86
2019-03-25T02:00:20.978Z,-0.85
2019-03-25T02:01:20.972Z,-0.82
2019-03-25T02:02:31.250Z,-0.78
2019-03-25T02:03:20.943Z,-0.85
2019-03-25T02:04:20.934Z,-0.97
2019-03-25T02:05:20.923Z,-0.85
2019-03-25T02:06:20.913Z,-0.80
2019-03-25T02:07:20.907Z,-0.80
2019-03-25T02:08:20.901Z,-0.98
2019-03-25T02:09:20.915Z,-0.95
2019-03-25T02:10:20.878Z,-0.85
2019-03-25T02:11:22.282Z,-0.92
2019-03-25T02:12:20.850Z,-1.02
2019-03-25T02:13:20.838Z,-0.98
2019-03-25T02:14:20.825Z,-0.98
2019-03-25T02:15:20.861Z,-1.02
2019-03-25T02:16:20.808Z,-0.91
2019-03-25T02:17:20.800Z,-1.05
2019-03-25T02:18:20.785Z,-1.05
2019-03-25T02:19:20.773Z,-1.01
2019-03-25T02:20:26.250Z,-1.10
2019-03-25T02:21:21.790Z,-1.05
2019-03-25T02:22:20.749Z,-1.17
2019-03-25T02:23:20.736Z,-1.09
2019-03-25T02:24:20.719Z,-1.12
2019-03-25T02:25:25.626Z,-1.09
2019-03-25T02:26:21.711Z,-1.17
2019-03-25T02:27:20.710Z,-1.10
2019-03-25T02:28:20.676Z,-1.20
2019-03-25T02:29:20.671Z,-1.17
2019-03-25T02:30:20.665Z,-1.22
2019-03-25T02:31:20.652Z,-1.25
2019-03-25T02:32:20.638Z,-1.19
2019-03-25T02:33:32.281Z,-1.27
2019-03-25T02:34:20.614Z,-1.27
2019-03-25T02:35:20.606Z,-1.25
2019-03-25T02:36:20.593Z,-1.30
2019-03-25T02:37:20.584Z,-1.37
2019-03-25T02:38:20.580Z,-1.34
2019-03-25T02:39:20.608Z,-1.43
2019-03-25T02:40:20.560Z,-1.37
2019-03-25T02:41:20.548Z,-1.37
2019-03-25T02:42:20.531Z,-1.40
2019-03-25T02:43:20.564Z,-1.37
2019-03-25T02:44:20.525Z,-1.45
2019-03-25T02:45:20.540Z,-1.41
2019-03-25T02:46:20.495Z,-1.48
2019-03-25T02:47:20.491Z,-1.48
2019-03-25T02:48:20.471Z,-1.48
2019-03-25T02:49:20.474Z,-1.45
2019-03-25T02:50:20.450Z,-1.64
2019-03-25T02:51:20.478Z,-1.61
2019-03-25T02:52:20.427Z,-1.64
2019-03-25T02:53:20.427Z,-1.72
2019-03-25T02:54:20.403Z,-1.72
2019-03-25T02:55:20.397Z,-1.74
2019-03-25T02:56:20.404Z,-1.70
2019-03-25T02:57:20.417Z,-1.69
2019-03-25T02:58:20.361Z,-1.70
2019-03-25T02:59:20.357Z,-1.70
2019-03-25T03:00:20.340Z,-1.66
2019-03-25T03:01:20.336Z,-1.67
2019-03-25T03:02:20.324Z,-1.69
2019-03-25T03:03:20.357Z,-1.72
2019-03-25T03:04:31.226Z,-1.64
2019-03-25T03:05:20.303Z,-1.61
2019-03-25T03:06:20.282Z,-1.74
2019-03-25T03:07:20.271Z,-1.67
2019-03-25T03:08:20.261Z,-1.72
2019-03-25T03:09:20.289Z,-1.73
2019-03-25T03:10:20.233Z,-1.82
2019-03-25T03:11:20.233Z,-1.90
2019-03-25T03:12:20.219Z,-1.87
2019-03-25T03:13:20.200Z,-1.87
2019-03-25T03:14:20.203Z,-1.87
2019-03-25T03:15:20.227Z,-1.87
2019-03-25T03:16:20.178Z,-1.85
2019-03-25T03:17:20.168Z,-1.85
2019-03-25T03:18:20.159Z,-1.87
2019-03-25T03:19:20.137Z,-1.79
2019-03-25T03:20:20.127Z,-1.79
2019-03-25T03:21:20.193Z,-1.80
2019-03-25T03:22:20.114Z,-1.85
2019-03-25T03:23:20.153Z,-1.87
2019-03-25T03:24:20.096Z,-1.87
2019-03-25T03:25:20.090Z,-1.77
2019-03-25T03:26:20.080Z,-1.90
2019-03-25T03:27:20.065Z,-1.77
2019-03-25T03:28:20.053Z,-1.87
2019-03-25T03:29:20.042Z,-1.88
2019-03-25T03:30:20.041Z,-1.73
2019-03-25T03:31:20.012Z,-1.84
2019-03-25T03:32:20.050Z,-1.84
2019-03-25T03:33:20.001Z,-1.82
2019-03-25T03:34:19.985Z,-1.66
2019-03-25T03:35:30.289Z,-1.66
2019-03-25T03:36:19.967Z,-1.76
2019-03-25T03:37:19.956Z,-1.70
2019-03-25T03:38:19.951Z,-1.67
2019-03-25T03:39:19.951Z,-1.73
2019-03-25T03:40:19.923Z,-1.77
2019-03-25T03:41:19.909Z,-1.66
2019-03-25T03:42:19.908Z,-1.69
2019-03-25T03:43:19.899Z,-1.82
2019-03-25T03:44:19.881Z,-1.66
2019-03-25T03:45:19.915Z,-1.77
2019-03-25T03:46:19.853Z,-1.76
2019-03-25T03:47:19.861Z,-1.73
2019-03-25T03:48:19.839Z,-1.73
2019-03-25T03:49:19.845Z,-1.76
2019-03-25T03:50:19.817Z,-1.77
2019-03-25T03:51:19.808Z,-1.73
2019-03-25T03:52:19.796Z,-1.73
2019-03-25T03:53:19.793Z,-1.74
2019-03-25T03:54:19.856Z,-1.80
2019-03-25T03:55:19.768Z,-1.82
2019-03-25T03:56:19.802Z,-1.82
2019-03-25T03:57:19.743Z,-1.80
2019-03-25T03:58:19.741Z,-1.91
2019-03-25T03:59:19.729Z,-1.88
2019-03-25T04:00:19.717Z,-1.91
2019-03-25T04:01:19.710Z,-1.92
2019-03-25T04:02:19.732Z,-1.95
2019-03-25T04:03:19.684Z,-1.90
2019-03-25T04:04:19.676Z,-2.05
2019-03-25T04:05:19.659Z,-1.95
2019-03-25T04:06:30.029Z,-1.95
2019-03-25T04:07:19.637Z,-1.92
2019-03-25T04:08:19.665Z,-2.05
2019-03-25T04:09:19.615Z,-2.03
2019-03-25T04:10:19.610Z,-2.05
2019-03-25T04:11:19.599Z,-1.77
2019-03-25T04:12:19.585Z,-1.74
2019-03-25T04:13:19.583Z,-1.69
2019-03-25T04:14:19.606Z,-1.73
2019-03-25T04:15:19.554Z,-1.73
2019-03-25T04:16:19.545Z,-1.79
2019-03-25T04:17:19.545Z,-1.87
2019-03-25T04:18:19.519Z,-1.87
2019-03-25T04:19:19.508Z,-1.92
2019-03-25T04:20:19.542Z,-1.84
2019-03-25T04:21:19.499Z,-1.88
2019-03-25T04:22:19.486Z,-1.87
2019-03-25T04:23:19.475Z,-1.91
2019-03-25T04:24:19.460Z,-1.95
2019-03-25T04:25:19.445Z,-1.79
2019-03-25T04:26:28.634Z,-1.90
2019-03-25T04:27:20.427Z,-1.87
2019-03-25T04:28:19.415Z,-1.84
2019-03-25T04:29:19.415Z,-1.74
2019-03-25T04:30:19.397Z,-1.76
2019-03-25T04:31:19.389Z,-1.70
2019-03-25T04:32:19.389Z,-1.73
2019-03-25T04:33:19.365Z,-1.76
2019-03-25T04:34:19.360Z,-1.76
2019-03-25T04:35:19.351Z,-1.72
2019-03-25T04:36:19.339Z,-1.82
2019-03-25T04:37:31.317Z,-1.80
2019-03-25T04:38:19.309Z,-1.73
2019-03-25T04:39:19.296Z,-1.72
2019-03-25T04:40:19.289Z,-1.76
2019-03-25T04:41:19.284Z,-1.80
2019-03-25T04:42:19.266Z,-1.72
2019-03-25T04:43:19.270Z,-1.62
2019-03-25T04:44:19.249Z,-1.62
2019-03-25T04:45:19.243Z,-1.69
2019-03-25T04:46:19.222Z,-1.70
2019-03-25T04:47:19.218Z,-1.58
2019-03-25T04:48:19.243Z,-1.51
2019-03-25T04:49:19.197Z,-1.52
2019-03-25T04:50:19.180Z,-1.49
2019-03-25T04:51:19.176Z,-1.41
2019-03-25T04:52:19.158Z,-1.48
2019-03-25T04:53:19.149Z,-1.34
2019-03-25T04:54:19.181Z,-1.35
2019-03-25T04:55:19.129Z,-1.43
2019-03-25T04:56:19.121Z,-1.31
2019-03-25T04:57:19.107Z,-1.34
2019-03-25T04:58:19.101Z,-1.41
2019-03-25T04:59:19.088Z,-1.43
2019-03-25T05:00:19.125Z,-1.31
2019-03-25T05:01:19.065Z,-1.20
2019-03-25T05:02:19.060Z,-1.35
2019-03-25T05:03:19.055Z,-1.28
2019-03-25T05:04:19.039Z,-1.31
2019-03-25T05:05:19.028Z,-1.31
2019-03-25T05:06:19.034Z,-1.31
2019-03-25T05:07:19.010Z,-1.43
2019-03-25T05:08:29.134Z,-1.28
2019-03-25T05:09:18.992Z,-1.22
2019-03-25T05:10:18.970Z,-1.20
2019-03-25T05:11:30.069Z,-1.05
2019-03-25T05:12:19.969Z,-1.12
2019-03-25T05:13:18.940Z,-1.02
2019-03-25T05:14:18.930Z,-1.02
2019-03-25T05:15:18.924Z,-1.12
2019-03-25T05:16:18.916Z,-1.05
2019-03-25T05:17:18.905Z,-1.01
2019-03-25T05:18:18.906Z,-0.83
2019-03-25T05:19:18.879Z,-0.86
2019-03-25T05:20:18.870Z,-0.79
2019-03-25T05:21:18.860Z,-0.79
2019-03-25T05:22:18.884Z,-0.85
2019-03-25T05:23:18.842Z,-0.82
2019-03-25T05:24:18.829Z,-0.67
2019-03-25T05:25:18.812Z,-0.76
2019-03-25T05:26:18.808Z,-0.69
2019-03-25T05:27:18.795Z,-0.67
2019-03-25T05:28:18.823Z,-0.70
2019-03-25T05:29:18.782Z,-0.64
2019-03-25T05:30:18.767Z,-0.55
2019-03-25T05:31:18.756Z,-0.44
2019-03-25T05:32:18.750Z,-0.44
2019-03-25T05:33:18.731Z,-0.47
2019-03-25T05:34:18.764Z,-0.46
2019-03-25T05:35:18.721Z,-0.36
2019-03-25T05:36:18.705Z,-0.40
2019-03-25T05:37:18.691Z,-0.40
2019-03-25T05:38:18.683Z,-0.40
2019-03-25T05:39:28.819Z,-0.40
2019-03-25T05:40:18.657Z,-0.39
2019-03-25T05:41:18.649Z,-0.39
2019-03-25T05:42:18.642Z,-0.25
2019-03-25T05:43:21.035Z,-0.26
2019-03-25T05:44:18.622Z,-0.22
2019-03-25T05:45:18.667Z,-0.25
2019-03-25T05:46:18.599Z,-0.25
2019-03-25T05:47:18.592Z,-0.15
2019-03-25T05:48:18.584Z,-0.11
2019-03-25T05:49:18.565Z,-0.16
2019-03-25T05:50:18.557Z,-0.10
2019-03-25T05:51:18.558Z,-0.16
2019-03-25T05:52:18.539Z,-0.08
2019-03-25T05:53:18.526Z,-0.10
2019-03-25T05:54:18.513Z,-0.11
2019-03-25T05:55:18.503Z,0.00
2019-03-25T05:56:18.533Z,-0.07
2019-03-25T05:57:18.484Z,0.04
2019-03-25T05:58:18.471Z,0.04
2019-03-25T05:59:18.460Z,-0.08
2019-03-25T06:00:18.453Z,-0.03
2019-03-25T06:01:18.441Z,-0.11
2019-03-25T06:02:18.471Z,-0.01
2019-03-25T06:03:18.418Z,0.08
2019-03-25T06:04:18.412Z,-0.05
2019-03-25T06:05:18.404Z,-0.05
2019-03-25T06:06:18.389Z,-0.05
2019-03-25T06:07:18.410Z,-0.10
2019-03-25T06:08:18.380Z,-0.01
2019-03-25T06:09:18.353Z,-0.10
2019-03-25T06:10:29.328Z,-0.03
2019-03-25T06:11:18.329Z,-0.03
2019-03-25T06:12:18.331Z,-0.08
2019-03-25T06:13:18.333Z,0.07
2019-03-25T06:14:18.302Z,0.10
2019-03-25T06:15:18.489Z,0.10
2019-03-25T06:16:18.317Z,0.15
2019-03-25T06:17:18.268Z,0.15
2019-03-25T06:18:20.377Z,0.23
2019-03-25T06:19:18.256Z,0.31
2019-03-25T06:20:18.235Z,0.28
2019-03-25T06:21:18.226Z,0.32
2019-03-25T06:22:18.220Z,0.29
2019-03-25T06:23:18.208Z,0.29
2019-03-25T06:24:18.234Z,0.39
2019-03-25T06:25:18.227Z,0.49
2019-03-25T06:26:18.176Z,0.50
2019-03-25T06:27:18.169Z,0.51
2019-03-25T06:28:18.189Z,0.47
2019-03-25T06:29:18.140Z,0.50
2019-03-25T06:30:18.147Z,0.58
2019-03-25T06:31:18.121Z,0.60
2019-03-25T06:32:18.109Z,0.57
2019-03-25T06:33:18.106Z,0.55
2019-03-25T06:34:18.116Z,0.53
2019-03-25T06:35:18.098Z,0.53
2019-03-25T06:36:18.073Z,0.60
2019-03-25T06:37:18.068Z,0.70
2019-03-25T06:38:18.056Z,0.69
2019-03-25T06:39:18.039Z,0.72
2019-03-25T06:40:18.028Z,0.73
2019-03-25T06:41:28.347Z,0.73
2019-03-25T06:42:18.006Z,0.78
2019-03-25T06:43:17.994Z,0.80
2019-03-25T06:44:17.986Z,0.98
2019-03-25T06:45:17.972Z,0.79
2019-03-25T06:46:18.006Z,0.80
2019-03-25T06:47:17.953Z,0.79
2019-03-25T06:48:17.944Z,0.90
2019-03-25T06:49:17.940Z,0.90
2019-03-25T06:50:17.930Z,0.83
2019-03-25T06:51:17.920Z,0.98
2019-03-25T06:52:17.919Z,0.97
2019-03-25T06:53:17.893Z,1.00
2019-03-25T06:54:17.887Z,0.87
2019-03-25T06:55:17.870Z,0.93
2019-03-25T06:56:17.868Z,1.16
2019-03-25T06:57:25.410Z,1.48
2019-03-25T06:58:18.845Z,2.12
2019-03-25T06:59:17.831Z,2.41
2019-03-25T07:00:17.815Z,2.75
2019-03-25T07:01:17.814Z,3.29
2019-03-25T07:02:17.804Z,3.42
2019-03-25T07:03:17.827Z,3.57
2019-03-25T07:04:17.779Z,3.78
2019-03-25T07:05:17.783Z,4.09
2019-03-25T07:06:17.763Z,4.45
2019-03-25T07:07:17.757Z,4.62
2019-03-25T07:08:17.734Z,4.88
2019-03-25T07:09:18.780Z,5.20
2019-03-25T07:10:17.712Z,5.33
2019-03-25T07:11:17.714Z,5.21
2019-03-25T07:12:29.104Z,5.38
2019-03-25T07:13:17.677Z,5.38
2019-03-25T07:14:17.671Z,5.61
2019-03-25T07:15:17.680Z,5.53
2019-03-25T07:16:17.854Z,5.48
2019-03-25T07:17:17.738Z,5.58
2019-03-25T07:18:17.627Z,5.53
2019-03-25T07:19:17.616Z,5.53
2019-03-25T07:20:17.635Z,5.75
2019-03-25T07:21:17.630Z,5.86
2019-03-25T07:22:17.582Z,5.61
2019-03-25T07:23:17.595Z,5.90
2019-03-25T07:24:17.562Z,6.11
2019-03-25T07:25:17.557Z,5.78
2019-03-25T07:26:17.547Z,6.14
2019-03-25T07:27:17.544Z,6.21
2019-03-25T07:28:17.517Z,6.18
2019-03-25T07:29:17.514Z,6.03
2019-03-25T07:30:17.494Z,6.18
2019-03-25T07:31:17.492Z,6.49
2019-03-25T07:32:17.538Z,6.58
2019-03-25T07:33:17.461Z,6.52
2019-03-25T07:34:17.462Z,5.94
2019-03-25T07:35:17.454Z,5.96
2019-03-25T07:36:17.439Z,5.86
2019-03-25T07:37:17.476Z,5.63
2019-03-25T07:38:17.445Z,5.96
2019-03-25T07:39:17.402Z,6.34
2019-03-25T07:40:17.394Z,6.54
2019-03-25T07:41:17.384Z,6.71
2019-03-25T07:42:17.380Z,6.56
2019-03-25T07:43:28.390Z,6.76
2019-03-25T07:44:17.344Z,7.31
2019-03-25T07:45:17.336Z,7.49
2019-03-25T07:46:17.325Z,7.53
2019-03-25T07:47:17.314Z,7.07
2019-03-25T07:48:17.304Z,7.37
2019-03-25T07:49:17.314Z,7.40
2019-03-25T07:50:17.304Z,7.52
2019-03-25T07:51:17.275Z,7.39
2019-03-25T07:52:17.259Z,7.68
2019-03-25T07:53:17.260Z,7.87
2019-03-25T07:54:17.255Z,8.12
2019-03-25T07:55:17.259Z,8.66
2019-03-25T07:56:17.218Z,8.34
2019-03-25T07:57:17.207Z,8.00
2019-03-25T07:58:17.203Z,8.04
2019-03-25T07:59:19.050Z,8.11
2019-03-25T08:00:17.184Z,8.05
2019-03-25T08:01:17.172Z,8.00
2019-03-25T08:02:17.154Z,7.79
2019-03-25T08:03:17.137Z,7.74
2019-03-25T08:04:17.143Z,8.11
2019-03-25T08:05:17.150Z,8.20
2019-03-25T08:06:17.118Z,8.63
2019-03-25T08:07:17.103Z,8.65
2019-03-25T08:08:17.091Z,8.58
2019-03-25T08:09:17.075Z,8.74
2019-03-25T08:10:17.065Z,8.63
2019-03-25T08:11:17.104Z,8.73
2019-03-25T08:12:17.051Z,8.71
2019-03-25T08:13:17.180Z,8.96
2019-03-25T08:14:27.277Z,9.05
2019-03-25T08:15:17.011Z,9.15
2019-03-25T08:16:17.015Z,8.62
2019-03-25T08:17:17.030Z,8.20
2019-03-25T08:18:16.983Z,8.65
2019-03-25T08:19:16.973Z,9.08
2019-03-25T08:20:16.959Z,9.11
2019-03-25T08:21:16.951Z,8.96
2019-03-25T08:22:16.939Z,8.99
2019-03-25T08:23:16.937Z,8.94
2019-03-25T08:24:16.931Z,9.14
2019-03-25T08:25:16.909Z,8.33
2019-03-25T08:26:16.896Z,7.83
2019-03-25T08:27:16.893Z,8.48
2019-03-25T08:28:16.916Z,8.80
2019-03-25T08:29:16.865Z,8.53
2019-03-25T08:30:16.884Z,8.71
2019-03-25T08:31:16.846Z,9.28
2019-03-25T08:32:16.836Z,9.58
2019-03-25T08:33:16.839Z,10.05
2019-03-25T08:34:16.848Z,10.08
2019-03-25T08:35:16.813Z,10.09
2019-03-25T08:36:16.793Z,9.14
2019-03-25T08:37:16.783Z,9.26
2019-03-25T08:38:16.769Z,9.32
2019-03-25T08:39:16.756Z,8.96
2019-03-25T08:40:16.775Z,8.73
2019-03-25T08:41:16.736Z,9.05
2019-03-25T08:42:16.755Z,9.20
2019-03-25T08:43:16.756Z,9.48
2019-03-25T08:44:16.707Z,9.91
2019-03-25T08:45:27.962Z,10.59
2019-03-25T08:46:16.684Z,10.47
2019-03-25T08:47:16.679Z,9.28
2019-03-25T08:48:16.667Z,9.13
2019-03-25T08:49:16.658Z,9.79
2019-03-25T08:50:16.640Z,9.50
2019-03-25T08:51:16.670Z,9.39
2019-03-25T08:52:16.627Z,9.50
2019-03-25T08:53:16.607Z,9.31
2019-03-25T08:54:16.600Z,9.99
2019-03-25T08:55:16.590Z,10.64
2019-03-25T08:56:16.600Z,11.04
2019-03-25T08:57:16.623Z,11.24
2019-03-25T08:58:16.560Z,10.78
2019-03-25T08:59:16.550Z,11.10
2019-03-25T09:00:16.535Z,11.15
2019-03-25T09:01:16.527Z,11.35
2019-03-25T09:02:16.516Z,12.02
2019-03-25T09:03:16.542Z,11.75
2019-03-25T09:04:16.514Z,11.83
2019-03-25T09:05:16.480Z,11.79
2019-03-25T09:06:16.471Z,11.80
2019-03-25T09:07:16.468Z,11.17
2019-03-25T09:08:16.468Z,10.64
2019-03-25T09:09:16.478Z,10.88
2019-03-25T09:10:16.430Z,10.94
2019-03-25T09:11:16.417Z,10.40
2019-03-25T09:12:16.429Z,10.88
2019-03-25T09:13:16.399Z,10.88
2019-03-25T09:14:16.388Z,11.47
2019-03-25T09:15:16.392Z,12.41
2019-03-25T09:16:26.759Z,12.90
2019-03-25T09:17:16.355Z,12.89
2019-03-25T09:18:16.350Z,13.00
2019-03-25T09:19:16.357Z,13.39
2019-03-25T09:20:16.328Z,13.63
2019-03-25T09:21:16.317Z,13.20
2019-03-25T09:22:16.308Z,13.54
2019-03-25T09:23:16.296Z,12.93
2019-03-25T09:24:16.285Z,11.85
2019-03-25T09:25:16.283Z,10.66
2019-03-25T09:26:16.268Z,10.97
2019-03-25T09:27:16.257Z,11.15
2019-03-25T09:28:24.098Z,10.60
2019-03-25T09:29:17.950Z,11.09
2019-03-25T09:30:16.242Z,11.07
2019-03-25T09:31:16.212Z,11.86
2019-03-25T09:32:16.201Z,12.27
2019-03-25T09:33:16.191Z,12.68
2019-03-25T09:34:16.182Z,13.17
2019-03-25T09:35:16.174Z,13.48
2019-03-25T09:36:16.190Z,13.44
2019-03-25T09:37:16.192Z,12.27
2019-03-25T09:38:16.143Z,11.95
2019-03-25T09:39:16.137Z,11.75
2019-03-25T09:40:16.121Z,11.29
2019-03-25T09:41:16.115Z,11.36
2019-03-25T09:42:16.144Z,11.72
2019-03-25T09:43:16.097Z,10.89
2019-03-25T09:44:16.083Z,10.33
2019-03-25T09:45:16.080Z,10.61
2019-03-25T09:46:16.069Z,11.33
2019-03-25T09:47:26.489Z,10.78
2019-03-25T09:48:16.039Z,11.37
2019-03-25T09:49:16.048Z,12.02
2019-03-25T09:50:16.023Z,12.02
2019-03-25T09:51:16.012Z,12.21
2019-03-25T09:52:16.008Z,12.46
2019-03-25T09:53:15.998Z,12.78
2019-03-25T09:54:15.989Z,12.93
2019-03-25T09:55:16.698Z,13.15
2019-03-25T09:56:15.969Z,13.11
2019-03-25T09:57:16.051Z,12.93
2019-03-25T09:58:15.947Z,12.65
2019-03-25T09:59:15.937Z,12.49
2019-03-25T10:00:15.923Z,12.95
2019-03-25T10:01:15.912Z,12.95
2019-03-25T10:02:15.905Z,12.53
2019-03-25T10:03:15.942Z,12.46
2019-03-25T10:04:15.918Z,13.11
2019-03-25T10:05:15.875Z,13.20
2019-03-25T10:06:15.890Z,12.97
2019-03-25T10:07:15.871Z,12.56
2019-03-25T10:08:15.846Z,12.74
2019-03-25T10:09:15.833Z,12.42
2019-03-25T10:10:15.857Z,12.37
2019-03-25T10:11:15.858Z,12.57
2019-03-25T10:12:15.811Z,12.74
2019-03-25T10:13:15.805Z,13.00
2019-03-25T10:14:15.796Z,12.97
2019-03-25T10:15:15.776Z,13.25
2019-03-25T10:16:15.804Z,13.36
2019-03-25T10:17:15.776Z,13.39
2019-03-25T10:18:28.105Z,13.64
2019-03-25T10:19:15.748Z,13.64
2019-03-25T10:20:15.722Z,13.51
2019-03-25T10:21:15.716Z,12.97
2019-03-25T10:22:15.735Z,12.41
2019-03-25T10:23:15.694Z,12.04
2019-03-25T10:24:15.690Z,10.97
2019-03-25T10:25:15.675Z,9.83
2019-03-25T10:26:15.658Z,9.39
2019-03-25T10:27:15.666Z,9.13
2019-03-25T10:28:15.641Z,9.10
2019-03-25T10:29:15.626Z,8.77
2019-03-25T10:30:15.617Z,8.76
2019-03-25T10:31:17.417Z,8.18
2019-03-25T10:32:15.611Z,7.86
2019-03-25T10:33:15.588Z,8.00
2019-03-25T10:34:15.583Z,7.87
2019-03-25T10:35:15.569Z,8.01
2019-03-25T10:36:15.560Z,8.19
2019-03-25T10:37:15.594Z,8.61
2019-03-25T10:38:19.818Z,8.84
2019-03-25T10:39:15.523Z,9.04
2019-03-25T10:40:15.517Z,9.02
2019-03-25T10:41:15.497Z,8.28
2019-03-25T10:42:15.504Z,8.02
2019-03-25T10:43:15.516Z,8.44
2019-03-25T10:44:15.466Z,10.30
2019-03-25T10:45:15.458Z,11.33
2019-03-25T10:46:15.456Z,10.73
2019-03-25T10:47:15.437Z,11.90
2019-03-25T10:48:15.429Z,13.26
2019-03-25T10:49:26.045Z,13.64
2019-03-25T10:50:15.404Z,14.15
2019-03-25T10:51:15.391Z,14.73
2019-03-25T10:52:15.388Z,15.54
2019-03-25T10:53:15.384Z,16.07
2019-03-25T10:54:15.431Z,16.33
2019-03-25T10:55:15.358Z,16.27
2019-03-25T10:56:15.350Z,16.15
2019-03-25T10:57:15.335Z,16.01
2019-03-25T10:58:15.331Z,14.98
2019-03-25T10:59:15.312Z,14.21
2019-03-25T11:00:15.320Z,14.29
2019-03-25T11:01:15.298Z,15.07
2019-03-25T11:02:15.283Z,14.32
2019-03-25T11:03:15.318Z,14.35
2019-03-25T11:04:15.282Z,14.92
2019-03-25T11:05:15.262Z,15.35
2019-03-25T11:06:15.290Z,15.75
2019-03-25T11:07:15.236Z,16.08
2019-03-25T11:08:15.224Z,16.41
2019-03-25T11:09:15.220Z,16.63
2019-03-25T11:10:15.206Z,16.83
2019-03-25T11:11:15.196Z,16.86
2019-03-25T11:12:15.228Z,17.14
2019-03-25T11:13:15.175Z,17.31
2019-03-25T11:14:15.171Z,17.51
2019-03-25T11:15:15.170Z,17.71
2019-03-25T11:16:15.150Z,18.10
2019-03-25T11:17:15.149Z,17.33
2019-03-25T11:18:15.136Z,15.90
2019-03-25T11:19:15.124Z,16.04
2019-03-25T11:20:25.351Z,16.27
2019-03-25T11:21:15.101Z,16.75
2019-03-25T11:22:15.097Z,16.76
2019-03-25T11:23:15.125Z,16.56
2019-03-25T11:24:15.291Z,16.83
2019-03-25T11:25:15.068Z,17.34
2019-03-25T11:26:15.057Z,16.96
2019-03-25T11:27:15.053Z,17.21
2019-03-25T11:28:15.036Z,17.15
2019-03-25T11:29:15.075Z,16.71
2019-03-25T11:30:15.052Z,17.12
2019-03-25T11:31:15.011Z,17.52
2019-03-25T11:32:15.007Z,18.11
2019-03-25T11:33:14.996Z,18.35
2019-03-25T11:34:14.986Z,17.72
2019-03-25T11:35:14.990Z,17.36
2019-03-25T11:36:14.970Z,17.68
2019-03-25T11:37:14.959Z,17.28
2019-03-25T11:38:14.944Z,17.14
2019-03-25T11:39:14.940Z,17.51
2019-03-25T11:40:14.929Z,16.81
2019-03-25T11:41:14.926Z,16.71
2019-03-25T11:42:14.916Z,17.12
2019-03-25T11:43:14.904Z,16.96
2019-03-25T11:44:14.889Z,17.00
2019-03-25T11:45:14.885Z,17.11
2019-03-25T11:46:14.914Z,16.25
2019-03-25T11:47:14.860Z,15.51
2019-03-25T11:48:14.852Z,15.23
2019-03-25T11:49:14.843Z,14.61
2019-03-25T11:50:14.837Z,14.52
2019-03-25T11:51:25.638Z,13.69
2019-03-25T11:52:14.819Z,13.87
2019-03-25T11:53:14.802Z,14.58
2019-03-25T11:54:14.800Z,16.45
2019-03-25T11:55:14.791Z,16.93
2019-03-25T11:56:14.778Z,16.49
2019-03-25T11:57:14.862Z,15.80
2019-03-25T11:58:14.763Z,15.80
2019-03-25T11:59:18.569Z,15.20
2019-03-25T12:00:14.745Z,15.50
2019-03-25T12:01:14.725Z,15.62
2019-03-25T12:02:17.716Z,15.62
2019-03-25T12:03:14.721Z,15.38
2019-03-25T12:04:14.698Z,15.65
2019-03-25T12:05:14.690Z,16.24
2019-03-25T12:06:14.676Z,16.88
2019-03-25T12:07:14.670Z,17.58
2019-03-25T12:08:14.707Z,17.26
2019-03-25T12:09:14.650Z,16.46
2019-03-25T12:10:14.637Z,15.80
2019-03-25T12:11:14.631Z,15.56
2019-03-25T12:12:14.619Z,15.20
2019-03-25T12:13:14.607Z,13.84
2019-03-25T12:14:14.620Z,12.68
2019-03-25T12:15:14.585Z,11.51
2019-03-25T12:16:14.579Z,10.61
2019-03-25T12:17:14.568Z,10.14
2019-03-25T12:18:14.560Z,9.83
2019-03-25T12:19:14.557Z,9.26
2019-03-25T12:20:14.580Z,9.05
2019-03-25T12:21:14.541Z,8.86
2019-03-25T12:22:24.993Z,8.62
2019-03-25T12:23:14.510Z,8.38
2019-03-25T12:24:14.496Z,8.23
2019-03-25T12:25:14.487Z,8.12
2019-03-25T12:26:14.477Z,7.83
2019-03-25T12:27:14.488Z,7.57
2019-03-25T12:28:14.448Z,7.37
2019-03-25T12:29:14.486Z,7.50
2019-03-25T12:30:14.439Z,7.55
2019-03-25T12:31:14.459Z,7.52
2019-03-25T12:32:14.408Z,7.39
2019-03-25T12:33:14.409Z,7.39
2019-03-25T12:34:14.442Z,7.32
2019-03-25T12:35:14.380Z,7.24
2019-03-25T12:36:14.373Z,7.10
2019-03-25T12:37:14.396Z,6.98
2019-03-25T12:38:14.346Z,6.99
2019-03-25T12:39:14.334Z,7.02
2019-03-25T12:40:14.326Z,6.98
2019-03-25T12:41:14.324Z,6.84
2019-03-25T12:42:14.317Z,6.69
2019-03-25T12:43:14.324Z,6.61
2019-03-25T12:44:14.280Z,6.56
2019-03-25T12:45:14.272Z,6.55
2019-03-25T12:46:14.257Z,6.40
2019-03-25T12:47:14.249Z,6.54
2019-03-25T12:48:14.236Z,6.62
2019-03-25T12:49:14.237Z,6.44
2019-03-25T12:50:14.219Z,6.46
2019-03-25T12:51:14.206Z,6.51
2019-03-25T12:52:14.196Z,6.30
2019-03-25T12:53:26.197Z,6.09
2019-03-25T12:54:14.175Z,6.09
2019-03-25T12:55:14.159Z,6.11
2019-03-25T12:56:14.150Z,6.14
2019-03-25T12:57:14.137Z,6.12
2019-03-25T12:58:14.137Z,6.06
2019-03-25T12:59:14.129Z,6.12